| time (UTC) | temp F | wind direction | speed knots | gust knots | rain 1hr in | rain 24hr in | rain mn in | humidity % | barometer mb |
| 20260508040023 | 47 | 218 | 1.7 | 3.5 | 0.00 | 0.00 | 0.00 | 57 | 1006.0 |
| 20260508035023 | 46 | 232 | 0.9 | 2.6 | 0.00 | 0.00 | 0.00 | 57 | 1005.9 |
| 20260508034022 | 46 | 198 | 0.9 | 2.6 | 0.00 | 0.00 | 0.00 | 57 | 1006.0 |
| 20260508033051 | 46 | 198 | 0.9 | 2.6 | 0.00 | 0.00 | 0.00 | 57 | 1006.1 |
| 20260508032110 | 46 | 203 | 0.9 | 0.9 | 0.00 | 0.00 | 0.00 | 58 | 1006.0 |
| 20260508031049 | 46 | 0.0 | 0.0 | 0.00 | 0.00 | 0.00 | 58 | 1006.0 | |
| 20260508030019 | 46 | 0.0 | 0.0 | 0.00 | 0.00 | 0.00 | 60 | 1006.0 | |
| 20260508025128 | 46 | 0.0 | 0.0 | 0.00 | 0.00 | 0.00 | 60 | 1006.3 | |
| 20260508024237 | 46 | 0.0 | 0.0 | 0.00 | 0.00 | 0.00 | 61 | 1006.2 | |
| 20260508023046 | 46 | 0.0 | 0.0 | 0.00 | 0.00 | 0.00 | 61 | 1006.2 | |
| 20260508022355 | 47 | 0.0 | 0.0 | 0.00 | 0.00 | 0.00 | 61 | 1006.3 | |
| 20260508021414 | 47 | 0.0 | 0.0 | 0.00 | 0.00 | 0.00 | 61 | 1006.0 | |
| 20260508020043 | 48 | 0.0 | 0.0 | 0.00 | 0.00 | 0.00 | 61 | 1006.0 | |
| 20260508015102 | 48 | 203 | 0.9 | 2.6 | 0.00 | 0.00 | 0.00 | 61 | 1005.8 |
| 20260508014041 | 49 | 180 | 0.9 | 2.6 | 0.00 | 0.00 | 0.00 | 61 | 1005.9 |
| 20260508013040 | 50 | 180 | 0.9 | 0.9 | 0.00 | 0.00 | 0.00 | 61 | 1005.8 |
| 20260508012039 | 50 | 228 | 0.9 | 2.6 | 0.00 | 0.00 | 0.00 | 60 | 1005.9 |
| 20260508011058 | 51 | 213 | 0.9 | 3.5 | 0.00 | 0.00 | 0.00 | 60 | 1005.6 |
| 20260508010038 | 51 | 232 | 1.7 | 6.1 | 0.00 | 0.00 | 0.00 | 60 | 1005.9 |
| 20260508005037 | 51 | 247 | 2.6 | 3.5 | 0.00 | 0.00 | 0.00 | 59 | 1005.8 |
| 20260508004036 | 52 | 238 | 2.6 | 4.3 | 0.00 | 0.00 | 0.00 | 59 | 1005.7 |
| 20260508003035 | 52 | 227 | 2.6 | 7.0 | 0.00 | 0.00 | 0.00 | 58 | 1005.7 |
| 20260508002055 | 52 | 243 | 3.5 | 7.0 | 0.00 | 0.00 | 0.00 | 57 | 1005.6 |
| 20260508001034 | 53 | 241 | 2.6 | 7.0 | 0.00 | 0.00 | 0.00 | 57 | 1005.6 |
| 20260508000033 | 53 | 230 | 3.5 | 6.1 | 0.00 | 0.00 | 0.00 | 57 | 1005.6 |
| 20260507235033 | 53 | 245 | 2.6 | 6.1 | 0.00 | 0.00 | 0.00 | 57 | 1005.3 |
| 20260507234032 | 53 | 231 | 5.2 | 10.4 | 0.00 | 0.00 | 0.00 | 56 | 1005.3 |
| 20260507233031 | 54 | 258 | 3.5 | 10.4 | 0.00 | 0.00 | 0.00 | 56 | 1005.3 |
| 20260507232141 | 54 | 221 | 4.3 | 12.2 | 0.00 | 0.00 | 0.00 | 55 | 1005.4 |
| 20260507231030 | 54 | 227 | 4.3 | 12.2 | 0.00 | 0.00 | 0.00 | 55 | 1005.4 |
| 20260507230029 | 54 | 224 | 3.5 | 8.7 | 0.00 | 0.00 | 0.00 | 54 | 1005.4 |
| 20260507225028 | 55 | 235 | 6.1 | 12.2 | 0.00 | 0.00 | 0.00 | 54 | 1005.6 |
| 20260507224057 | 55 | 237 | 6.1 | 13.9 | 0.00 | 0.00 | 0.00 | 55 | 1005.7 |
| 20260507223057 | 55 | 229 | 4.3 | 10.4 | 0.00 | 0.00 | 0.00 | 55 | 1005.4 |
| 20260507222026 | 55 | 246 | 5.2 | 13.0 | 0.00 | 0.00 | 0.00 | 54 | 1005.6 |
| 20260507221025 | 56 | 235 | 5.2 | 13.0 | 0.00 | 0.00 | 0.00 | 54 | 1005.5 |
| 20260507220024 | 56 | 217 | 4.3 | 13.0 | 0.00 | 0.00 | 0.00 | 53 | 1005.5 |
| 20260507215053 | 57 | 223 | 4.3 | 12.2 | 0.00 | 0.00 | 0.00 | 54 | 1005.4 |
| 20260507214053 | 57 | 222 | 5.2 | 12.2 | 0.00 | 0.00 | 0.00 | 54 | 1005.3 |
| 20260507213212 | 57 | 228 | 2.6 | 10.4 | 0.00 | 0.00 | 0.00 | 54 | 1005.3 |
| 20260507212101 | 57 | 229 | 5.2 | 12.2 | 0.00 | 0.00 | 0.00 | 54 | 1005.2 |
| 20260507211050 | 57 | 225 | 7.8 | 12.2 | 0.00 | 0.00 | 0.00 | 54 | 1005.0 |
| 20260507210049 | 56 | 272 | 1.7 | 6.1 | 0.00 | 0.00 | 0.00 | 55 | 1005.1 |
| 20260507205108 | 55 | 223 | 5.2 | 8.7 | 0.00 | 0.00 | 0.00 | 54 | 1004.9 |
| 20260507204047 | 56 | 227 | 3.5 | 7.0 | 0.00 | 0.00 | 0.00 | 53 | 1005.1 |
| 20260507203107 | 56 | 263 | 3.5 | 8.7 | 0.00 | 0.00 | 0.00 | 53 | 1005.3 |
| 20260507202045 | 57 | 284 | 5.2 | 8.7 | 0.00 | 0.00 | 0.00 | 53 | 1005.0 |
| 20260507201044 | 57 | 241 | 4.3 | 12.2 | 0.00 | 0.00 | 0.00 | 53 | 1005.1 |
| 20260507200103 | 58 | 243 | 3.5 | 8.7 | 0.00 | 0.00 | 0.00 | 53 | 1005.3 |
| 20260507195043 | 58 | 266 | 2.6 | 9.6 | 0.00 | 0.00 | 0.00 | 54 | 1005.4 |
| 20260507194042 | 57 | 204 | 1.7 | 6.1 | 0.00 | 0.00 | 0.00 | 54 | 1005.4 |
| 20260507193041 | 57 | 238 | 3.5 | 7.0 | 0.00 | 0.00 | 0.00 | 54 | 1005.4 |
| 20260507192040 | 57 | 290 | 1.7 | 6.1 | 0.00 | 0.00 | 0.00 | 55 | 1005.7 |
| 20260507191040 | 57 | 336 | 2.6 | 6.1 | 0.00 | 0.00 | 0.00 | 55 | 1005.7 |
| 20260507190039 | 57 | 269 | 3.5 | 7.0 | 0.00 | 0.00 | 0.00 | 55 | 1005.7 |
| 20260507185038 | 57 | 287 | 2.6 | 7.0 | 0.00 | 0.00 | 0.00 | 57 | 1005.8 |
| 20260507184036 | 56 | 294 | 1.7 | 7.0 | 0.00 | 0.00 | 0.00 | 57 | 1005.9 |
| 20260507183036 | 56 | 315 | 2.6 | 6.1 | 0.00 | 0.00 | 0.00 | 58 | 1006.0 |
| 20260507182035 | 57 | 232 | 5.2 | 9.6 | 0.00 | 0.00 | 0.00 | 57 | 1006.1 |
| 20260507181104 | 56 | 193 | 2.6 | 4.3 | 0.00 | 0.00 | 0.00 | 57 | 1006.1 |
| 20260507180034 | 56 | 251 | 3.5 | 7.0 | 0.00 | 0.00 | 0.00 | 55 | 1005.8 |
| 20260507175033 | 56 | 311 | 2.6 | 7.0 | 0.00 | 0.00 | 0.00 | 56 | 1005.9 |
| 20260507174032 | 56 | 328 | 2.6 | 7.0 | 0.00 | 0.00 | 0.00 | 55 | 1006.0 |
| 20260507173052 | 56 | 292 | 2.6 | 6.1 | 0.00 | 0.00 | 0.00 | 56 | 1006.1 |
| 20260507172101 | 56 | 256 | 3.5 | 8.7 | 0.00 | 0.00 | 0.00 | 56 | 1006.0 |
| 20260507171030 | 56 | 294 | 2.6 | 4.3 | 0.00 | 0.00 | 0.00 | 56 | 1005.9 |
| 20260507170029 | 56 | 263 | 2.6 | 4.3 | 0.00 | 0.00 | 0.00 | 58 | 1006.1 |
| 20260507165058 | 56 | 253 | 2.6 | 9.6 | 0.00 | 0.00 | 0.00 | 59 | 1006.0 |
| 20260507164028 | 57 | 319 | 4.3 | 9.6 | 0.00 | 0.00 | 0.00 | 59 | 1006.0 |
| 20260507163027 | 56 | 316 | 1.7 | 3.5 | 0.00 | 0.00 | 0.00 | 59 | 1006.2 |
| 20260507162226 | 56 | 239 | 2.6 | 6.1 | 0.00 | 0.00 | 0.00 | 59 | 1006.1 |
| 20260507161055 | 56 | 248 | 2.6 | 7.0 | 0.00 | 0.00 | 0.00 | 59 | 1006.2 |
| 20260507160055 | 56 | 25 | 1.7 | 3.5 | 0.00 | 0.00 | 0.00 | 58 | 1006.0 |
| 20260507155044 | 56 | 353 | 2.6 | 6.1 | 0.00 | 0.00 | 0.00 | 58 | 1006.1 |
| 20260507154023 | 55 | 332 | 2.6 | 7.0 | 0.00 | 0.00 | 0.00 | 58 | 1006.1 |
| 20260507153052 | 55 | 331 | 2.6 | 6.1 | 0.00 | 0.00 | 0.00 | 59 | 1006.2 |
| 20260507152050 | 55 | 347 | 2.6 | 7.0 | 0.00 | 0.00 | 0.00 | 55 | 1006.1 |
| 20260507151050 | 55 | 333 | 1.7 | 4.3 | 0.00 | 0.00 | 0.00 | 51 | 1006.2 |
| 20260507150019 | 55 | 260 | 3.5 | 7.0 | 0.00 | 0.00 | 0.00 | 50 | 1006.1 |
| 20260507145118 | 55 | 266 | 2.6 | 7.0 | 0.00 | 0.00 | 0.00 | 51 | 1006.1 |
| 20260507144047 | 54 | 273 | 1.7 | 6.1 | 0.00 | 0.00 | 0.00 | 50 | 1006.1 |
| 20260507143116 | 54 | 240 | 2.6 | 6.1 | 0.00 | 0.00 | 0.00 | 51 | 1006.1 |
| 20260507142126 | 54 | 298 | 1.7 | 4.3 | 0.00 | 0.00 | 0.00 | 50 | 1006.2 |
| 20260507141114 | 54 | 231 | 1.7 | 6.1 | 0.00 | 0.00 | 0.00 | 47 | 1006.1 |
| 20260507140044 | 53 | 207 | 2.6 | 4.3 | 0.00 | 0.00 | 0.00 | 46 | 1006.1 |
| 20260507135043 | 53 | 253 | 2.6 | 7.0 | 0.00 | 0.00 | 0.00 | 46 | 1006.5 |
| 20260507134042 | 53 | 255 | 1.7 | 6.1 | 0.00 | 0.00 | 0.00 | 43 | 1006.4 |
| 20260507133041 | 52 | 224 | 2.6 | 6.1 | 0.00 | 0.00 | 0.00 | 42 | 1006.4 |
| 20260507132101 | 52 | 237 | 1.7 | 4.3 | 0.00 | 0.00 | 0.00 | 42 | 1006.4 |
| 20260507131130 | 51 | 247 | 3.5 | 8.7 | 0.00 | 0.00 | 0.00 | 42 | 1006.4 |
| 20260507130039 | 50 | 221 | 1.7 | 8.7 | 0.00 | 0.00 | 0.00 | 43 | 1006.3 |
| 20260507125038 | 50 | 226 | 2.6 | 6.1 | 0.00 | 0.00 | 0.00 | 42 | 1006.2 |
| 20260507124038 | 49 | 224 | 3.5 | 7.0 | 0.00 | 0.00 | 0.00 | 40 | 1006.3 |
| 20260507123037 | 48 | 224 | 2.6 | 6.1 | 0.00 | 0.00 | 0.00 | 36 | 1006.4 |
| 20260507122037 | 47 | 210 | 1.7 | 3.5 | 0.00 | 0.00 | 0.00 | 36 | 1006.3 |
| 20260507121056 | 46 | 237 | 1.7 | 4.3 | 0.00 | 0.00 | 0.00 | 34 | 1006.3 |
| 20260507120035 | 46 | 194 | 0.9 | 2.6 | 0.00 | 0.00 | 0.00 | 33 | 1006.2 |
| 20260507115105 | 45 | 189 | 0.0 | 2.6 | 0.00 | 0.00 | 0.00 | 33 | 1006.3 |
| 20260507114104 | 45 | 194 | 1.7 | 3.5 | 0.00 | 0.00 | 0.00 | 35 | 1006.4 |
| 20260507113053 | 44 | 198 | 0.9 | 2.6 | 0.00 | 0.00 | 0.00 | 36 | 1006.3 |
| 20260507112202 | 44 | 180 | 0.0 | 2.6 | 0.00 | 0.00 | 0.00 | 38 | 1006.1 |
| 20260507111102 | 44 | 216 | 0.9 | 0.9 | 0.00 | 0.00 | 0.00 | 38 | 1006.0 |
| 20260507110031 | 44 | 187 | 0.9 | 2.6 | 0.00 | 0.00 | 0.00 | 37 | 1006.0 |
| 20260507105100 | 44 | 190 | 0.9 | 3.5 | 0.00 | 0.00 | 0.00 | 37 | 1005.6 |
| 20260507104029 | 44 | 208 | 0.9 | 3.5 | 0.00 | 0.00 | 0.00 | 37 | 1005.7 |
| 20260507103028 | 44 | 203 | 0.9 | 2.6 | 0.00 | 0.00 | 0.00 | 38 | 1005.9 |
| 20260507102128 | 44 | 203 | 0.9 | 2.6 | 0.00 | 0.00 | 0.00 | 38 | 1005.8 |
| 20260507101027 | 44 | 198 | 0.9 | 2.6 | 0.00 | 0.00 | 0.00 | 38 | 1005.5 |
| 20260507100026 | 44 | 195 | 0.9 | 2.6 | 0.00 | 0.00 | 0.00 | 38 | 1005.6 |
| 20260507095046 | 44 | 193 | 1.7 | 3.5 | 0.00 | 0.01 | 0.00 | 37 | 1005.5 |
| 20260507094025 | 44 | 211 | 1.7 | 4.3 | 0.00 | 0.02 | 0.00 | 37 | 1005.7 |
| 20260507093123 | 44 | 189 | 1.7 | 4.3 | 0.00 | 0.02 | 0.00 | 37 | 1005.7 |
| 20260507092022 | 44 | 201 | 1.7 | 3.5 | 0.00 | 0.02 | 0.00 | 37 | 1005.7 |
| 20260507091251 | 44 | 213 | 1.7 | 3.5 | 0.00 | 0.03 | 0.00 | 37 | 1005.6 |
| 20260507090050 | 44 | 189 | 0.9 | 2.6 | 0.00 | 0.03 | 0.00 | 37 | 1005.9 |
| 20260507085049 | 43 | 175 | 0.9 | 3.5 | 0.00 | 0.04 | 0.00 | 38 | 1005.9 |
| 20260507084048 | 43 | 175 | 0.9 | 3.5 | 0.00 | 0.05 | 0.00 | 40 | 1005.9 |
| 20260507083018 | 43 | 238 | 0.9 | 2.6 | 0.00 | 0.06 | 0.00 | 42 | 1005.7 |
| 20260507082047 | 43 | 173 | 0.9 | 2.6 | 0.00 | 0.07 | 0.00 | 42 | 1005.7 |
| 20260507081115 | 43 | 161 | 0.9 | 6.1 | 0.00 | 0.08 | 0.00 | 42 | 1006.0 |
| 20260507080044 | 43 | 102 | 0.0 | 2.6 | 0.00 | 0.09 | 0.00 | 42 | 1005.9 |
| 20260507075043 | 43 | 234 | 0.9 | 3.5 | 0.00 | 0.10 | 0.00 | 42 | 1005.9 |
| 20260507074042 | 43 | 188 | 0.9 | 3.5 | 0.00 | 0.11 | 0.00 | 42 | 1005.8 |
| 20260507073042 | 43 | 211 | 0.9 | 2.6 | 0.00 | 0.11 | 0.00 | 42 | 1005.9 |
| 20260507072111 | 43 | 216 | 0.9 | 2.6 | 0.00 | 0.12 | 0.00 | 42 | 1005.7 |
| 20260507071040 | 43 | 207 | 0.9 | 3.5 | 0.00 | 0.12 | 0.00 | 43 | 1006.2 |
| 20260507070039 | 42 | 228 | 0.9 | 2.6 | 0.00 | 0.12 | 0.00 | 44 | 1006.1 |
| 20260507065039 | 42 | 218 | 0.9 | 2.6 | 0.00 | 0.12 | 0.00 | 45 | 1006.0 |
| 20260507064038 | 42 | 176 | 0.9 | 0.9 | 0.00 | 0.12 | 0.00 | 46 | 1006.1 |
| 20260507063037 | 42 | 225 | 0.9 | 2.6 | 0.00 | 0.12 | 0.00 | 47 | 1006.4 |
| 20260507062037 | 42 | 188 | 0.9 | 2.6 | 0.00 | 0.12 | 0.00 | 48 | 1006.4 |
| 20260507061036 | 42 | 194 | 0.9 | 2.6 | 0.00 | 0.13 | 0.00 | 48 | 1006.4 |
| 20260507060035 | 42 | 188 | 0.9 | 3.5 | 0.00 | 0.13 | 0.00 | 49 | 1006.4 |
| 20260507055054 | 42 | 195 | 0.9 | 2.6 | 0.00 | 0.13 | 0.00 | 49 | 1006.4 |
| 20260507054033 | 42 | 183 | 0.9 | 2.6 | 0.00 | 0.14 | 0.00 | 51 | 1006.7 |
| 20260507053032 | 43 | 181 | 0.9 | 2.6 | 0.00 | 0.15 | 0.00 | 52 | 1006.6 |
| 20260507052221 | 43 | 135 | 0.0 | 0.9 | 0.00 | 0.15 | 0.00 | 52 | 1006.7 |
| 20260507051101 | 44 | 0.0 | 0.0 | 0.00 | 0.16 | 0.00 | 52 | 1006.9 | |
| 20260507050100 | 44 | 0.0 | 0.0 | 0.00 | 0.16 | 0.00 | 52 | 1007.1 | |
| 20260507045129 | 44 | 0.0 | 0.0 | 0.00 | 0.16 | 0.00 | 52 | 1007.2 | |
| 20260507044058 | 44 | 140 | 0.9 | 2.6 | 0.00 | 0.16 | 0.00 | 53 | 1007.1 |
| 20260507043028 | 45 | 203 | 0.0 | 0.9 | 0.00 | 0.17 | 0.00 | 53 | 1007.1 |
| 20260507042117 | 45 | 135 | 0.0 | 0.9 | 0.00 | 0.17 | 0.00 | 53 | 1007.2 |
| 20260507041416 | 45 | 141 | 0.9 | 0.9 | 0.00 | 0.17 | 0.00 | 54 | 1007.1 |
| 20260507040025 | 45 | 135 | 0.0 | 2.6 | 0.00 | 0.18 | 0.00 | 54 | 1007.4 |